Latest Weather Observations for Maria Island

IDT60801

Issued at 6:31 am EDT Thursday 11 February 2016 (issued every 30 minutes, with the page automatically refreshed every 10 minutes)

About weather observations | Map of weather stations | Latest weather observations for TAS | Other Formats
Station Details ID: 092124 Name: MARIA ISLAND (POINT LESUEUR) Lat: -42.66 Lon: 148.02 Height: 28.0 m
Data from the previous 72 hours. | See also: Recent months at Maria Island
Date/Time
EDT
Temp
°C
App
Temp
°C
Dew
Point
Rel
Hum
%
Delta-T
°C
Wind Press
QNH
hPa
Press
MSL
hPa
Rain
since 9 am
mm
Dir
 
Spd
km/h
Gust
km/h
Spd
kts
Gust
kts
11/06:30am 16.2 15.1 13.1 82 1.7 SW 11 13 6 7 1014.6 1014.5 0.0
11/06:00am 16.0 15.2 12.9 82 1.7 SW 9 13 5 7 1014.1 1014.0 0.0
11/05:30am 16.2 15.1 13.1 82 1.7 SW 11 13 6 7 1013.9 1013.8 0.0
11/05:00am 16.1 15.1 13.4 84 1.5 SW 11 15 6 8 1013.6 1013.5 0.0
11/04:30am 16.3 14.6 13.6 84 1.5 SSW 15 20 8 11 1013.5 1013.4 0.0
11/04:00am 16.3 14.2 13.6 84 1.5 SSW 17 20 9 11 1013.4 1013.3 0.0
11/03:30am 16.3 13.8 13.4 83 1.6 S 19 22 10 12 1013.4 1013.3 0.0
11/03:00am 16.2 13.1 13.5 84 1.5 SSW 22 24 12 13 1013.4 1013.3 0.0
11/02:30am 16.3 13.4 14.0 86 1.3 SSW 22 26 12 14 1013.4 1013.3 0.0
11/02:00am 16.2 12.8 13.7 85 1.4 SSW 24 28 13 15 1013.4 1013.3 0.0
11/01:30am 16.5 12.5 14.0 85 1.4 SSW 28 32 15 17 1013.3 1013.2 0.0
11/01:00am 16.9 13.8 14.5 86 1.4 SSW 24 28 13 15 1013.2 1013.1 0.0
11/12:30am 17.7 14.4 15.1 85 1.5 SSW 26 32 14 17 1013.0 1012.9 0.0
11/12:26am 17.6 15.6 15.4 87 1.3 SW 20 32 11 17 1013.0 1012.9 0.0
11/12:00am 17.8 17.8 15.2 85 1.5 W 9 13 5 7 1012.7 1012.6 0.0
 
Date/Time
EDT
Temp
°C
App
Temp
°C
Dew
Point
Rel
Hum
%
Delta-T
°C
Wind Press
QNH
hPa
Press
MSL
hPa
Rain
since 9 am
mm
Dir
 
Spd
km/h
Gust
km/h
Spd
kts
Gust
kts
10/11:30pm 17.6 17.6 15.2 86 1.4 WNW 9 11 5 6 1012.6 1012.5 0.0
10/11:00pm 18.1 18.2 15.5 85 1.5 WNW 9 13 5 7 1012.7 1012.6 0.0
10/10:30pm 18.6 18.5 14.9 79 2.2 N 9 11 5 6 1012.6 1012.5 0.0
10/10:00pm 18.3 18.1 14.6 79 2.1 N 9 11 5 6 1012.4 1012.3 0.0
10/09:30pm 19.1 19.3 14.6 75 2.6 N 7 9 4 5 1012.3 1012.2 0.0
10/09:00pm 18.9 19.5 14.2 74 2.7 NNW 4 6 2 3 1012.1 1012.0 0.0
10/08:30pm 19.2 20.5 14.2 73 2.9 CALM 0 2 0 1 1012.1 1012.0 0.0
10/08:00pm 19.4 19.6 14.2 72 3.0 SE 6 9 3 5 1011.8 1011.7 0.0
10/07:30pm 19.5 18.9 14.5 73 2.9 SE 11 13 6 7 1011.6 1011.5 0.0
10/07:00pm 19.8 19.5 13.3 66 3.7 ESE 7 13 4 7 1011.2 1011.1 0.0
10/06:30pm 20.2 20.4 14.3 69 3.4 ESE 6 13 3 7 1011.0 1010.9 0.0
10/06:00pm 20.2 20.1 13.9 67 3.6 NNW 7 11 4 6 1010.9 1010.8 0.0
10/05:30pm 20.2 18.7 13.2 64 4.0 ESE 13 17 7 9 1010.7 1010.6 0.0
10/05:00pm 21.3 21.8 14.0 63 4.2 W 4 13 2 7 1010.7 1010.6 0.0
10/04:30pm 21.4 20.1 12.5 57 5.0 ESE 11 15 6 8 1010.6 1010.5 0.0
10/04:00pm 21.4 19.3 12.5 57 5.0 ESE 15 19 8 10 1010.7 1010.6 0.0
10/03:30pm 21.8 20.2 14.9 65 4.1 ESE 17 22 9 12 1010.9 1010.8 0.0
10/03:00pm 22.1 20.4 14.7 63 4.4 ESE 17 22 9 12 1011.0 1010.9 0.0
10/02:30pm 20.8 18.5 14.7 68 3.6 ESE 20 24 11 13 1011.3 1011.2 0.0
10/02:00pm 20.6 17.9 14.5 68 3.6 ESE 22 28 12 15 1011.3 1011.2 0.0
10/01:30pm 20.8 18.2 13.7 64 4.1 ESE 20 24 11 13 1011.4 1011.3 0.0
10/01:00pm 20.9 18.5 14.3 66 3.8 ESE 20 26 11 14 1011.6 1011.5 0.0
10/12:30pm 21.6 21.5 10.7 50 6.0 SSW 2 7 1 4 1012.0 1011.9 0.0
10/12:00pm 20.6 19.4 9.5 49 5.9 N 6 7 3 4 1012.4 1012.3 0.0
10/11:30am 19.7 19.4 13.2 66 3.7 NNE 7 11 4 6 1012.7 1012.6 0.0
10/11:00am 19.5 19.4 13.2 67 3.6 N 6 11 3 6 1012.9 1012.8 0.0
10/10:30am 18.9 18.6 12.6 67 3.5 S 6 9 3 5 1013.1 1013.0 0.0
10/10:00am 18.7 18.4 12.7 68 3.4 SSW 6 11 3 6 1013.2 1013.1 0.0
10/09:30am 18.3 15.5 12.7 70 3.1 SSW 19 20 10 11 1013.3 1013.2 0.0
10/09:00am 17.4 14.3 12.3 72 2.8 SSW 20 24 11 13 1013.5 1013.4 0.0
10/08:30am 17.5 15.2 13.0 75 2.5 SSW 17 24 9 13 1013.2 1013.1 0.0
10/08:00am 17.0 17.2 14.6 86 1.4 WNW 7 11 4 6 1013.0 1012.9 0.0
10/07:30am 16.6 16.1 14.8 89 1.0 W 11 13 6 7 1013.0 1012.9 0.0
10/07:00am 16.1 16.4 15.1 94 0.6 W 7 9 4 5 1012.8 1012.7 0.0
10/06:30am 16.0 16.5 14.9 93 0.6 W 6 7 3 4 1012.5 1012.4 0.0
10/06:00am 16.2 16.7 14.9 92 0.7 WSW 6 6 3 3 1012.6 1012.5 0.0
10/05:30am 16.2 16.7 15.1 93 0.6 W 6 6 3 3 1012.5 1012.4 0.0
10/05:00am 16.4 17.3 15.1 92 0.8 W 4 6 2 3 1012.5 1012.4 0.0
10/04:30am 16.1 17.0 14.1 88 1.1 NE 2 4 1 2 1012.6 1012.5 0.0
10/04:00am 16.2 16.8 14.2 88 1.1 ENE 4 6 2 3 1012.8 1012.7 0.0
10/03:30am 15.9 16.1 14.3 90 0.9 NE 6 7 3 4 1012.7 1012.6 0.0
10/03:00am 16.9 17.9 14.4 85 1.4 E 2 6 1 3 1012.9 1012.8 0.0
10/02:30am 17.1 16.4 14.4 84 1.5 SSE 11 13 6 7 1013.3 1013.2 0.0
10/02:00am 16.9 17.0 14.5 86 1.4 SSE 7 9 4 5 1013.5 1013.4 0.0
10/01:30am 17.4 16.8 14.7 84 1.6 SSW 11 13 6 7 1013.8 1013.7 0.0
10/01:00am 17.4 16.4 14.5 83 1.7 S 13 17 7 9 1014.1 1014.0 0.0
10/12:30am 17.4 15.7 14.7 84 1.6 S 17 19 9 10 1014.1 1014.0 0.0
10/12:00am 17.8 15.7 15.1 84 1.6 S 20 24 11 13 1014.3 1014.2 0.0
 
Date/Time
EDT
Temp
°C
App
Temp
°C
Dew
Point
Rel
Hum
%
Delta-T
°C
Wind Press
QNH
hPa
Press
MSL
hPa
Rain
since 9 am
mm
Dir
 
Spd
km/h
Gust
km/h
Spd
kts
Gust
kts
09/11:30pm 17.9 16.0 15.2 84 1.6 S 19 26 10 14 1014.3 1014.2 0.0
09/11:00pm 17.9 16.0 15.3 85 1.5 S 19 22 10 12 1014.4 1014.3 0.0
09/10:30pm 18.1 15.7 15.4 84 1.6 S 22 30 12 16 1014.7 1014.6 0.0
09/10:00pm 18.6 14.4 15.8 84 1.7 S 32 37 17 20 1014.7 1014.6 0.0
09/09:30pm 19.4 14.8 16.2 82 1.9 SSW 35 41 19 22 1014.3 1014.2 0.0
09/09:00pm 19.8 18.9 18.1 90 1.1 SSW 20 24 11 13 1013.9 1013.8 0.0
09/08:30pm 20.4 22.6 16.6 79 2.3 CALM 0 6 0 3 1013.9 1013.8 0.0
09/08:00pm 20.8 21.9 16.6 77 2.5 S 6 7 3 4 1013.9 1013.8 0.0
09/07:30pm 20.9 22.3 17.3 80 2.2 S 6 9 3 5 1013.9 1013.8 0.0
09/07:00pm 21.4 22.4 17.8 80 2.2 WSW 9 9 5 5 1014.0 1013.9 0.0
09/06:30pm 21.9 23.2 17.5 76 2.7 SW 7 11 4 6 1014.1 1014.0 0.0
09/06:00pm 21.4 22.4 16.8 75 2.8 WNW 7 9 4 5 1014.4 1014.3 0.0
09/05:30pm 21.9 22.5 16.8 73 3.1 NW 9 11 5 6 1014.9 1014.8 0.0
09/05:00pm 21.7 22.5 16.4 72 3.2 NNW 7 11 4 6 1015.3 1015.2 0.0
09/04:30pm 21.5 21.9 16.2 72 3.2 N 9 15 5 8 1015.7 1015.6 0.0
09/04:00pm 21.2 19.9 15.7 71 3.3 N 17 20 9 11 1016.2 1016.1 0.0
09/03:30pm 21.9 18.7 15.3 66 3.9 N 26 33 14 18 1016.2 1016.1 0.0
09/03:00pm 21.9 18.5 14.8 64 4.2 N 26 35 14 19 1016.7 1016.6 0.0
09/02:30pm 22.0 19.5 14.1 61 4.6 NNE 20 26 11 14 1017.3 1017.2 0.0
09/02:00pm 21.5 18.2 13.9 62 4.4 N 24 35 13 19 1017.6 1017.5 0.0
09/01:30pm 21.6 17.7 13.2 59 4.8 NNE 26 35 14 19 1018.0 1018.0 0.0
09/01:00pm 21.7 18.3 13.6 60 4.7 N 24 32 13 17 1018.4 1018.4 0.0
09/12:30pm 21.4 16.8 12.3 56 5.1 N 28 32 15 17 1018.9 1018.9 0.0
09/12:00pm 21.4 17.8 10.6 50 5.9 N 20 24 11 13 1019.6 1019.6 0.0
09/11:30am 20.0 17.4 10.7 55 5.1 N 15 17 8 9 1020.1 1020.1 0.0
09/11:00am 19.5 17.4 11.0 58 4.6 N 13 15 7 8 1020.5 1020.5 0.0
09/10:30am 18.8 17.3 10.4 58 4.5 N 9 11 5 6 1020.8 1020.8 0.0
09/10:00am 18.4 17.2 10.3 59 4.3 N 7 9 4 5 1021.0 1021.0 0.0
09/09:30am 18.1 16.6 10.5 61 4.1 N 9 11 5 6 1021.1 1021.1 0.0
09/09:00am 17.7 16.4 9.8 60 4.2 NW 7 9 4 5 1021.2 1021.2 0.0
09/08:30am 17.1 15.8 10.0 63 3.7 NW 7 11 4 6 1021.3 1021.3 0.0
09/08:00am 17.2 16.2 11.0 67 3.3 N 7 11 4 6 1021.2 1021.2 0.0
09/07:30am 16.2 13.6 9.4 64 3.5 NW 13 17 7 9 1021.1 1021.1 0.0
09/07:00am 15.7 14.3 9.6 67 3.2 WNW 7 9 4 5 1021.0 1021.0 0.0
09/06:30am 16.3 13.4 9.7 65 3.4 W 15 17 8 9 1020.7 1020.7 0.0
09/06:00am 16.4 12.6 9.8 65 3.4 W 20 24 11 13 1020.3 1020.3 0.0
09/05:30am 16.3 13.5 9.9 66 3.4 WSW 15 20 8 11 1020.3 1020.3 0.0
09/05:00am 15.8 13.4 9.9 68 3.1 WSW 13 15 7 8 1020.3 1020.3 0.0
09/04:30am 15.5 13.9 10.3 71 2.7 W 9 13 5 7 1020.3 1020.3 0.0
09/04:00am 16.0 15.1 10.7 71 2.8 WNW 6 11 3 6 1020.3 1020.3 0.0
09/03:30am 16.2 15.1 9.8 66 3.3 WNW 6 7 3 4 1020.3 1020.3 0.0
09/03:00am 16.2 15.7 10.9 71 2.8 W 4 7 2 4 1020.2 1020.2 0.0
09/02:30am 17.1 16.1 10.2 64 3.7 WSW 6 9 3 5 1020.2 1020.2 0.0
09/02:00am 16.5 15.1 11.0 70 2.9 W 9 13 5 7 1020.2 1020.2 0.0
09/01:30am 17.2 16.0 11.5 69 3.1 W 9 13 5 7 1020.4 1020.4 0.0
09/01:00am 18.0 14.5 10.1 60 4.2 W 19 24 10 13 1020.4 1020.4 0.0
09/12:30am 18.3 14.1 9.9 58 4.5 W 22 26 12 14 1020.4 1020.4 0.0
09/12:00am 18.6 15.8 9.9 57 4.6 W 15 19 8 10 1020.4 1020.4 0.0
 
Date/Time
EDT
Temp
°C
App
Temp
°C
Dew
Point
Rel
Hum
%
Delta-T
°C
Wind Press
QNH
hPa
Press
MSL
hPa
Rain
since 9 am
mm
Dir
 
Spd
km/h
Gust
km/h
Spd
kts
Gust
kts
08/11:30pm 18.9 15.6 11.5 62 4.1 SW 20 24 11 13 1020.6 1020.6 0.0
08/11:00pm 18.9 15.4 11.0 60 4.3 SW 20 26 11 14 1020.6 1020.6 0.0
08/10:30pm 19.3 19.0 14.3 73 2.9 SW 9 17 5 9 1020.6 1020.6 0.0
08/10:00pm 19.4 18.1 13.8 70 3.2 WNW 13 22 7 12 1020.5 1020.5 0.0
08/09:30pm 19.5 18.1 14.5 73 2.9 NNW 15 17 8 9 1020.2 1020.2 0.0
08/09:00pm 19.3 17.6 14.6 74 2.7 NNW 17 19 9 10 1019.8 1019.8 0.0
08/08:30pm 19.3 17.4 14.3 73 2.9 NNW 17 20 9 11 1019.2 1019.2 0.0
08/08:00pm 19.8 19.3 13.7 68 3.5 N 9 13 5 7 1018.9 1018.9 0.0
08/07:30pm 19.9 20.0 13.8 68 3.5 WNW 6 7 3 4 1018.5 1018.5 0.0
08/07:00pm 20.2 20.1 13.4 65 3.9 ENE 6 11 3 6 1018.3 1018.3 0.0
08/06:30pm 20.4 19.1 13.6 65 3.9 E 13 17 7 9 1017.9 1017.9 0.0
08/06:00pm 20.7 19.0 13.6 64 4.1 E 15 22 8 12 1017.8 1017.8 0.0
08/05:30pm 20.5 18.1 13.7 65 3.9 E 19 20 10 11 1017.6 1017.5 0.0
08/05:00pm 20.9 18.4 13.4 62 4.3 E 19 22 10 12 1017.3 1017.2 0.0
08/04:30pm 20.7 18.2 13.6 64 4.1 E 19 24 10 13 1017.2 1017.1 0.0
08/04:00pm 21.0 18.4 13.9 64 4.1 E 20 26 11 14 1017.2 1017.1 0.0
08/03:30pm 21.1 17.7 13.8 63 4.2 ESE 24 30 13 16 1017.3 1017.2 0.0
08/03:00pm 20.7 16.4 14.4 67 3.7 E 30 37 16 20 1017.0 1016.9 0.0
08/02:30pm 21.6 18.2 15.7 69 3.5 E 28 35 15 19 1017.0 1016.9 0.0
08/02:00pm 22.0 19.3 15.6 67 3.8 E 24 33 13 18 1017.1 1017.0 0.0
08/01:30pm 22.8 19.8 13.8 57 5.2 S 22 24 12 13 1017.2 1017.1 0.0
08/01:00pm 23.1 21.6 14.1 57 5.3 S 15 19 8 10 1017.3 1017.2 0.0
08/12:30pm 22.9 21.3 13.9 57 5.3 S 15 19 8 10 1017.3 1017.2 0.0
08/12:00pm 22.2 20.8 13.5 57 5.0 S 13 15 7 8 1017.5 1017.4 0.0
08/11:30am 21.5 20.5 14.6 65 4.1 S 13 20 7 11 1017.5 1017.4 0.0
08/11:00am 21.0 20.4 14.6 67 3.7 S 11 15 6 8 1017.7 1017.6 0.0
08/10:30am 20.6 19.1 15.2 71 3.2 S 17 20 9 11 1017.6 1017.5 0.0
08/10:00am 19.9 16.8 15.7 77 2.5 S 26 30 14 16 1017.9 1017.9 0.0
08/09:30am 19.9 19.4 16.0 78 2.3 S 13 19 7 10 1018.0 1018.0 0.0
08/09:00am 19.9 20.5 16.7 82 1.9 S 9 13 5 7 1018.0 1018.0 0.0
08/08:30am 18.8 19.6 16.4 86 1.4 S 7 11 4 6 1017.9 1017.9 0.0
08/08:00am 19.0 21.2 16.6 86 1.4 CALM 0 4 0 2 1017.6 1017.5 0.0
08/07:30am 18.0 20.2 16.5 91 0.9 CALM 0 0 0 0 1017.4 1017.3 0.0
08/07:00am 17.6 19.3 16.3 92 0.8 W 2 2 1 1 1017.0 1016.9 0.0

Other Formats:

Comma delimited format used in spreadsheet applications
http://www.bom.gov.au/fwo/IDT60801/IDT60801.95988.axf

JavaScript Object Notation format (JSON) in row-major order
http://www.bom.gov.au/fwo/IDT60801/IDT60801.95988.json